sensor_id;sensor_type;location;lat;lon;timestamp;temperature;humidity
5222;DHT22;2630;52.036;8.514;2023-02-01T00:01:24;4.40;99.90
5222;DHT22;2630;52.036;8.514;2023-02-01T00:25:52;4.70;99.90
5222;DHT22;2630;52.036;8.514;2023-02-01T00:35:36;4.70;99.90
5222;DHT22;2630;52.036;8.514;2023-02-01T00:38:02;4.70;99.90
5222;DHT22;2630;52.036;8.514;2023-02-01T00:40:27;4.60;99.90
5222;DHT22;2630;52.036;8.514;2023-02-01T00:47:45;4.60;99.90
5222;DHT22;2630;52.036;8.514;2023-02-01T00:50:11;4.60;99.90
5222;DHT22;2630;52.036;8.514;2023-02-01T00:52:37;4.60;99.90
5222;DHT22;2630;52.036;8.514;2023-02-01T00:57:28;4.60;99.90
5222;DHT22;2630;52.036;8.514;2023-02-01T01:02:20;4.60;99.90
5222;DHT22;2630;52.036;8.514;2023-02-01T01:04:45;4.50;99.90
5222;DHT22;2630;52.036;8.514;2023-02-01T01:07:11;4.50;99.90
5222;DHT22;2630;52.036;8.514;2023-02-01T01:09:37;4.60;99.90
5222;DHT22;2630;52.036;8.514;2023-02-01T01:12:02;4.60;99.90
5222;DHT22;2630;52.036;8.514;2023-02-01T01:14:32;4.60;99.90
5222;DHT22;2630;52.036;8.514;2023-02-01T01:16:58;4.60;99.90
5222;DHT22;2630;52.036;8.514;2023-02-01T01:19:23;4.70;99.90
5222;DHT22;2630;52.036;8.514;2023-02-01T01:21:49;4.60;99.90
5222;DHT22;2630;52.036;8.514;2023-02-01T01:24:14;4.60;99.90
5222;DHT22;2630;52.036;8.514;2023-02-01T01:26:40;4.60;99.90
5222;DHT22;2630;52.036;8.514;2023-02-01T01:29:06;4.60;99.90
5222;DHT22;2630;52.036;8.514;2023-02-01T01:33:59;4.70;99.90
5222;DHT22;2630;52.036;8.514;2023-02-01T01:36:25;4.70;99.90
5222;DHT22;2630;52.036;8.514;2023-02-01T01:38:52;4.70;99.90
5222;DHT22;2630;52.036;8.514;2023-02-01T01:41:21;4.60;99.90
5222;DHT22;2630;52.036;8.514;2023-02-01T01:44:05;4.60;99.90
5222;DHT22;2630;52.036;8.514;2023-02-01T01:46:34;4.60;99.90
5222;DHT22;2630;52.036;8.514;2023-02-01T01:51:46;4.60;99.90
5222;DHT22;2630;52.036;8.514;2023-02-01T01:54:15;4.50;99.90
5222;DHT22;2630;52.036;8.514;2023-02-01T01:56:44;4.60;99.90
5222;DHT22;2630;52.036;8.514;2023-02-01T01:59:11;4.60;99.90
5222;DHT22;2630;52.036;8.514;2023-02-01T02:01:37;4.60;99.90
5222;DHT22;2630;52.036;8.514;2023-02-01T02:04:03;4.60;99.90
5222;DHT22;2630;52.036;8.514;2023-02-01T02:06:46;4.70;99.90
5222;DHT22;2630;52.036;8.514;2023-02-01T02:09:14;4.70;99.90
5222;DHT22;2630;52.036;8.514;2023-02-01T02:14:08;4.70;99.90
5222;DHT22;2630;52.036;8.514;2023-02-01T02:16:38;4.70;99.90
5222;DHT22;2630;52.036;8.514;2023-02-01T02:27:15;4.80;99.90
5222;DHT22;2630;52.036;8.514;2023-02-01T02:41:03;5.10;99.90
5222;DHT22;2630;52.036;8.514;2023-02-01T02:46:38;5.10;99.90
5222;DHT22;2630;52.036;8.514;2023-02-01T02:54:50;5.10;99.90
5222;DHT22;2630;52.036;8.514;2023-02-01T02:57:38;5.10;99.90
5222;DHT22;2630;52.036;8.514;2023-02-01T03:00:28;5.20;99.90
5222;DHT22;2630;52.036;8.514;2023-02-01T03:05:59;5.20;99.90
5222;DHT22;2630;52.036;8.514;2023-02-01T03:11:06;5.20;99.90
5222;DHT22;2630;52.036;8.514;2023-02-01T03:23:42;5.20;99.90
5222;DHT22;2630;52.036;8.514;2023-02-01T03:31:05;5.30;99.90
5222;DHT22;2630;52.036;8.514;2023-02-01T03:33:31;5.20;99.90
5222;DHT22;2630;52.036;8.514;2023-02-01T03:36:46;5.30;99.90
5222;DHT22;2630;52.036;8.514;2023-02-01T03:47:10;5.30;99.90
5222;DHT22;2630;52.036;8.514;2023-02-01T03:49:49;5.30;99.90
5222;DHT22;2630;52.036;8.514;2023-02-01T03:52:22;5.30;99.90
5222;DHT22;2630;52.036;8.514;2023-02-01T03:54:49;5.30;99.90
5222;DHT22;2630;52.036;8.514;2023-02-01T03:57:19;5.30;99.90
5222;DHT22;2630;52.036;8.514;2023-02-01T03:59:47;5.30;99.90
5222;DHT22;2630;52.036;8.514;2023-02-01T04:02:13;5.40;99.90
5222;DHT22;2630;52.036;8.514;2023-02-01T04:04:38;5.40;99.90
5222;DHT22;2630;52.036;8.514;2023-02-01T04:07:04;5.40;99.90
5222;DHT22;2630;52.036;8.514;2023-02-01T04:09:30;5.40;99.90
5222;DHT22;2630;52.036;8.514;2023-02-01T04:16:47;5.50;99.90
5222;DHT22;2630;52.036;8.514;2023-02-01T04:19:13;5.50;99.90
5222;DHT22;2630;52.036;8.514;2023-02-01T04:21:38;5.50;99.90
5222;DHT22;2630;52.036;8.514;2023-02-01T04:24:04;5.50;99.90
5222;DHT22;2630;52.036;8.514;2023-02-01T04:26:30;5.50;99.90
5222;DHT22;2630;52.036;8.514;2023-02-01T04:28:56;5.60;99.90
5222;DHT22;2630;52.036;8.514;2023-02-01T04:38:46;5.50;99.90
5222;DHT22;2630;52.036;8.514;2023-02-01T04:43:38;5.50;99.90
5222;DHT22;2630;52.036;8.514;2023-02-01T04:46:03;5.50;99.90
5222;DHT22;2630;52.036;8.514;2023-02-01T04:53:22;5.20;99.90
5222;DHT22;2630;52.036;8.514;2023-02-01T04:58:14;5.00;99.90
5222;DHT22;2630;52.036;8.514;2023-02-01T05:00:40;5.00;99.90
5222;DHT22;2630;52.036;8.514;2023-02-01T05:03:05;4.90;99.90
5222;DHT22;2630;52.036;8.514;2023-02-01T05:05:31;4.90;99.90
5222;DHT22;2630;52.036;8.514;2023-02-01T05:07:56;4.80;99.90
5222;DHT22;2630;52.036;8.514;2023-02-01T05:10:22;4.80;99.90
5222;DHT22;2630;52.036;8.514;2023-02-01T05:12:47;4.80;99.90
5222;DHT22;2630;52.036;8.514;2023-02-01T05:15:32;4.70;99.90
5222;DHT22;2630;52.036;8.514;2023-02-01T05:20:24;4.70;99.90
5222;DHT22;2630;52.036;8.514;2023-02-01T05:22:50;4.60;99.90
5222;DHT22;2630;52.036;8.514;2023-02-01T05:25:16;4.60;99.90
5222;DHT22;2630;52.036;8.514;2023-02-01T05:30:08;4.60;99.90
5222;DHT22;2630;52.036;8.514;2023-02-01T05:32:34;4.60;99.90
5222;DHT22;2630;52.036;8.514;2023-02-01T05:34:59;4.70;99.90
5222;DHT22;2630;52.036;8.514;2023-02-01T05:37:25;4.60;99.90
5222;DHT22;2630;52.036;8.514;2023-02-01T05:39:51;4.60;99.90
5222;DHT22;2630;52.036;8.514;2023-02-01T05:42:17;4.60;99.90
5222;DHT22;2630;52.036;8.514;2023-02-01T05:44:42;4.60;99.90
5222;DHT22;2630;52.036;8.514;2023-02-01T05:47:08;4.60;99.90
5222;DHT22;2630;52.036;8.514;2023-02-01T05:49:34;4.60;99.90
5222;DHT22;2630;52.036;8.514;2023-02-01T05:51:59;4.60;99.90
5222;DHT22;2630;52.036;8.514;2023-02-01T05:59:17;4.70;99.90
5222;DHT22;2630;52.036;8.514;2023-02-01T06:01:43;4.80;99.90
5222;DHT22;2630;52.036;8.514;2023-02-01T06:04:08;4.80;99.90
5222;DHT22;2630;52.036;8.514;2023-02-01T06:06:34;4.90;99.90
5222;DHT22;2630;52.036;8.514;2023-02-01T06:09:00;4.90;99.90
5222;DHT22;2630;52.036;8.514;2023-02-01T06:11:26;4.90;99.90
5222;DHT22;2630;52.036;8.514;2023-02-01T06:13:53;4.90;99.90
5222;DHT22;2630;52.036;8.514;2023-02-01T06:16:19;4.90;99.90
5222;DHT22;2630;52.036;8.514;2023-02-01T06:18:44;5.00;99.90
5222;DHT22;2630;52.036;8.514;2023-02-01T06:23:38;5.00;99.90
5222;DHT22;2630;52.036;8.514;2023-02-01T06:26:06;5.00;99.90
5222;DHT22;2630;52.036;8.514;2023-02-01T06:28:34;5.00;99.90
5222;DHT22;2630;52.036;8.514;2023-02-01T06:31:06;5.00;99.90
5222;DHT22;2630;52.036;8.514;2023-02-01T06:33:33;5.10;99.90
5222;DHT22;2630;52.036;8.514;2023-02-01T06:36:01;5.00;99.90
5222;DHT22;2630;52.036;8.514;2023-02-01T06:38:27;5.00;99.90
5222;DHT22;2630;52.036;8.514;2023-02-01T06:43:20;5.10;99.90
5222;DHT22;2630;52.036;8.514;2023-02-01T06:45:46;5.20;99.90
5222;DHT22;2630;52.036;8.514;2023-02-01T06:48:11;5.20;99.90
5222;DHT22;2630;52.036;8.514;2023-02-01T06:50:37;5.20;99.90
5222;DHT22;2630;52.036;8.514;2023-02-01T06:53:02;5.10;99.90
5222;DHT22;2630;52.036;8.514;2023-02-01T06:55:28;5.20;99.90
5222;DHT22;2630;52.036;8.514;2023-02-01T06:57:54;5.20;99.90
5222;DHT22;2630;52.036;8.514;2023-02-01T07:00:21;5.20;99.90
5222;DHT22;2630;52.036;8.514;2023-02-01T07:02:47;5.20;99.90
5222;DHT22;2630;52.036;8.514;2023-02-01T07:05:12;5.30;99.90
5222;DHT22;2630;52.036;8.514;2023-02-01T07:07:38;5.20;99.90
5222;DHT22;2630;52.036;8.514;2023-02-01T07:10:04;5.30;99.90
5222;DHT22;2630;52.036;8.514;2023-02-01T07:14:55;5.30;99.90
5222;DHT22;2630;52.036;8.514;2023-02-01T07:17:22;5.30;99.90
5222;DHT22;2630;52.036;8.514;2023-02-01T07:22:16;5.40;99.90
5222;DHT22;2630;52.036;8.514;2023-02-01T07:24:42;5.40;99.90
5222;DHT22;2630;52.036;8.514;2023-02-01T07:27:08;5.40;99.90
5222;DHT22;2630;52.036;8.514;2023-02-01T07:29:33;5.40;99.90
5222;DHT22;2630;52.036;8.514;2023-02-01T07:34:25;5.40;99.90
5222;DHT22;2630;52.036;8.514;2023-02-01T07:36:51;5.40;99.90
5222;DHT22;2630;52.036;8.514;2023-02-01T07:39:17;5.50;99.90
5222;DHT22;2630;52.036;8.514;2023-02-01T07:41:42;5.50;99.90
5222;DHT22;2630;52.036;8.514;2023-02-01T07:46:34;5.50;99.90
5222;DHT22;2630;52.036;8.514;2023-02-01T07:48:59;5.50;99.90
5222;DHT22;2630;52.036;8.514;2023-02-01T07:51:25;5.50;99.90
5222;DHT22;2630;52.036;8.514;2023-02-01T07:53:51;5.50;99.90
5222;DHT22;2630;52.036;8.514;2023-02-01T07:56:18;5.60;99.90
5222;DHT22;2630;52.036;8.514;2023-02-01T07:58:48;5.70;99.90
5222;DHT22;2630;52.036;8.514;2023-02-01T08:01:20;5.70;99.90
5222;DHT22;2630;52.036;8.514;2023-02-01T08:03:51;5.70;99.90
5222;DHT22;2630;52.036;8.514;2023-02-01T08:06:17;5.70;99.90
5222;DHT22;2630;52.036;8.514;2023-02-01T08:08:45;5.60;99.90
5222;DHT22;2630;52.036;8.514;2023-02-01T08:13:38;5.60;99.90
5222;DHT22;2630;52.036;8.514;2023-02-01T08:16:06;5.70;99.90
5222;DHT22;2630;52.036;8.514;2023-02-01T08:18:33;5.70;99.90
5222;DHT22;2630;52.036;8.514;2023-02-01T08:21:17;5.70;99.90
5222;DHT22;2630;52.036;8.514;2023-02-01T08:23:43;5.80;99.90
5222;DHT22;2630;52.036;8.514;2023-02-01T08:26:15;5.90;99.90
5222;DHT22;2630;52.036;8.514;2023-02-01T08:31:12;6.00;99.90
5222;DHT22;2630;52.036;8.514;2023-02-01T08:33:40;6.00;99.90
5222;DHT22;2630;52.036;8.514;2023-02-01T08:38:35;6.10;99.90
5222;DHT22;2630;52.036;8.514;2023-02-01T08:43:41;6.10;99.90
5222;DHT22;2630;52.036;8.514;2023-02-01T08:46:08;6.10;99.90
5222;DHT22;2630;52.036;8.514;2023-02-01T08:48:34;6.10;99.90
5222;DHT22;2630;52.036;8.514;2023-02-01T08:51:09;6.10;99.90
5222;DHT22;2630;52.036;8.514;2023-02-01T08:53:35;6.10;99.90
5222;DHT22;2630;52.036;8.514;2023-02-01T09:00:53;6.20;99.90
5222;DHT22;2630;52.036;8.514;2023-02-01T09:03:19;6.30;99.90
5222;DHT22;2630;52.036;8.514;2023-02-01T09:05:44;6.40;99.90
5222;DHT22;2630;52.036;8.514;2023-02-01T09:08:11;6.40;99.90
5222;DHT22;2630;52.036;8.514;2023-02-01T09:10:41;6.40;99.90
5222;DHT22;2630;52.036;8.514;2023-02-01T09:13:07;6.50;99.90
5222;DHT22;2630;52.036;8.514;2023-02-01T09:15:33;6.70;99.90
5222;DHT22;2630;52.036;8.514;2023-02-01T09:17:59;6.80;99.90
5222;DHT22;2630;52.036;8.514;2023-02-01T09:22:52;6.80;99.90
5222;DHT22;2630;52.036;8.514;2023-02-01T09:25:18;6.70;99.90
5222;DHT22;2630;52.036;8.514;2023-02-01T09:27:43;6.80;99.90
5222;DHT22;2630;52.036;8.514;2023-02-01T09:30:09;6.80;99.90
5222;DHT22;2630;52.036;8.514;2023-02-01T09:32:36;6.70;99.90
5222;DHT22;2630;52.036;8.514;2023-02-01T09:35:01;6.70;99.90
5222;DHT22;2630;52.036;8.514;2023-02-01T09:37:27;6.80;99.90
5222;DHT22;2630;52.036;8.514;2023-02-01T09:39:52;6.90;99.90
5222;DHT22;2630;52.036;8.514;2023-02-01T09:47:46;6.90;99.90
5222;DHT22;2630;52.036;8.514;2023-02-01T09:53:02;6.80;99.90
5222;DHT22;2630;52.036;8.514;2023-02-01T09:55:38;6.80;99.90
5222;DHT22;2630;52.036;8.514;2023-02-01T09:58:22;6.80;99.90
5222;DHT22;2630;52.036;8.514;2023-02-01T10:00:56;6.90;99.90
5222;DHT22;2630;52.036;8.514;2023-02-01T10:16:51;7.50;99.90
5222;DHT22;2630;52.036;8.514;2023-02-01T10:22:41;7.70;99.90
5222;DHT22;2630;52.036;8.514;2023-02-01T10:25:30;7.60;99.90
5222;DHT22;2630;52.036;8.514;2023-02-01T10:27:59;7.60;99.90
5222;DHT22;2630;52.036;8.514;2023-02-01T10:30:40;7.60;99.90
5222;DHT22;2630;52.036;8.514;2023-02-01T10:33:22;7.50;99.90
5222;DHT22;2630;52.036;8.514;2023-02-01T10:38:25;7.50;99.90
5222;DHT22;2630;52.036;8.514;2023-02-01T10:40:56;7.40;99.90
5222;DHT22;2630;52.036;8.514;2023-02-01T10:45:51;7.20;99.90
5222;DHT22;2630;52.036;8.514;2023-02-01T10:48:17;7.20;99.90
5222;DHT22;2630;52.036;8.514;2023-02-01T10:51:00;7.30;99.90
5222;DHT22;2630;52.036;8.514;2023-02-01T10:58:36;7.40;99.90
5222;DHT22;2630;52.036;8.514;2023-02-01T11:01:04;7.40;99.90
5222;DHT22;2630;52.036;8.514;2023-02-01T11:04:01;7.30;99.90
5222;DHT22;2630;52.036;8.514;2023-02-01T11:06:36;7.20;99.90
5222;DHT22;2630;52.036;8.514;2023-02-01T11:11:31;7.00;99.90
5222;DHT22;2630;52.036;8.514;2023-02-01T11:14:10;7.00;99.90
5222;DHT22;2630;52.036;8.514;2023-02-01T11:16:38;7.00;99.90
5222;DHT22;2630;52.036;8.514;2023-02-01T11:19:05;7.00;99.90
5222;DHT22;2630;52.036;8.514;2023-02-01T11:21:31;7.10;99.90
5222;DHT22;2630;52.036;8.514;2023-02-01T11:24:04;7.10;99.90
5222;DHT22;2630;52.036;8.514;2023-02-01T11:26:31;7.10;99.90
5222;DHT22;2630;52.036;8.514;2023-02-01T11:29:10;7.10;99.90
5222;DHT22;2630;52.036;8.514;2023-02-01T11:34:18;7.10;99.90
5222;DHT22;2630;52.036;8.514;2023-02-01T11:36:47;7.20;99.90
5222;DHT22;2630;52.036;8.514;2023-02-01T11:44:29;7.00;99.90
5222;DHT22;2630;52.036;8.514;2023-02-01T11:46:56;7.00;99.90
5222;DHT22;2630;52.036;8.514;2023-02-01T11:49:30;6.90;99.90
5222;DHT22;2630;52.036;8.514;2023-02-01T11:54:50;6.90;99.90
5222;DHT22;2630;52.036;8.514;2023-02-01T11:57:53;6.80;99.90
5222;DHT22;2630;52.036;8.514;2023-02-01T12:25:41;5.80;99.90
5222;DHT22;2630;52.036;8.514;2023-02-01T12:39:24;5.70;99.90
5222;DHT22;2630;52.036;8.514;2023-02-01T12:42:19;5.60;99.90
5222;DHT22;2630;52.036;8.514;2023-02-01T12:44:55;5.50;99.90
5222;DHT22;2630;52.036;8.514;2023-02-01T12:47:38;5.50;99.90
5222;DHT22;2630;52.036;8.514;2023-02-01T12:52:49;5.40;99.90
5222;DHT22;2630;52.036;8.514;2023-02-01T12:55:22;5.40;99.90
5222;DHT22;2630;52.036;8.514;2023-02-01T12:58:16;5.40;99.90
5222;DHT22;2630;52.036;8.514;2023-02-01T13:00:50;5.30;99.90
5222;DHT22;2630;52.036;8.514;2023-02-01T13:03:37;5.40;99.90
5222;DHT22;2630;52.036;8.514;2023-02-01T13:06:39;5.30;99.90
5222;DHT22;2630;52.036;8.514;2023-02-01T13:11:33;5.30;99.90
5222;DHT22;2630;52.036;8.514;2023-02-01T13:16:39;5.40;99.90
5222;DHT22;2630;52.036;8.514;2023-02-01T13:21:46;5.50;99.90
5222;DHT22;2630;52.036;8.514;2023-02-01T13:24:31;5.60;99.90
5222;DHT22;2630;52.036;8.514;2023-02-01T13:26:59;5.60;99.90
5222;DHT22;2630;52.036;8.514;2023-02-01T13:29:28;5.70;99.90
5222;DHT22;2630;52.036;8.514;2023-02-01T13:42:55;5.70;99.90
5222;DHT22;2630;52.036;8.514;2023-02-01T13:45:30;5.80;99.90
5222;DHT22;2630;52.036;8.514;2023-02-01T13:48:00;5.80;99.90
5222;DHT22;2630;52.036;8.514;2023-02-01T13:50:29;5.70;99.90
5222;DHT22;2630;52.036;8.514;2023-02-01T13:53:00;5.80;99.90
5222;DHT22;2630;52.036;8.514;2023-02-01T13:55:31;5.80;99.90
5222;DHT22;2630;52.036;8.514;2023-02-01T14:00:34;5.90;99.90
5222;DHT22;2630;52.036;8.514;2023-02-01T14:23:55;5.80;99.90
5222;DHT22;2630;52.036;8.514;2023-02-01T14:29:00;5.50;99.90
5222;DHT22;2630;52.036;8.514;2023-02-01T14:33:56;5.30;99.90
5222;DHT22;2630;52.036;8.514;2023-02-01T14:36:23;5.20;99.90
5222;DHT22;2630;52.036;8.514;2023-02-01T14:38:50;5.10;99.90
5222;DHT22;2630;52.036;8.514;2023-02-01T14:49:42;5.00;99.90
5222;DHT22;2630;52.036;8.514;2023-02-01T14:52:17;4.90;99.90
5222;DHT22;2630;52.036;8.514;2023-02-01T14:54:47;4.90;99.90
5222;DHT22;2630;52.036;8.514;2023-02-01T14:57:19;4.80;99.90
5222;DHT22;2630;52.036;8.514;2023-02-01T14:59:46;4.80;99.90
5222;DHT22;2630;52.036;8.514;2023-02-01T15:02:23;4.70;99.90
5222;DHT22;2630;52.036;8.514;2023-02-01T15:04:54;4.70;99.90
5222;DHT22;2630;52.036;8.514;2023-02-01T15:07:21;4.80;99.90
5222;DHT22;2630;52.036;8.514;2023-02-01T15:09:49;4.80;99.90
5222;DHT22;2630;52.036;8.514;2023-02-01T15:12:18;4.90;99.90
5222;DHT22;2630;52.036;8.514;2023-02-01T15:17:30;5.10;99.90
5222;DHT22;2630;52.036;8.514;2023-02-01T15:22:29;5.20;99.90
5222;DHT22;2630;52.036;8.514;2023-02-01T15:27:23;5.30;99.90
5222;DHT22;2630;52.036;8.514;2023-02-01T15:29:49;5.30;99.90
5222;DHT22;2630;52.036;8.514;2023-02-01T15:32:38;5.30;99.90
5222;DHT22;2630;52.036;8.514;2023-02-01T15:35:04;5.40;99.90
5222;DHT22;2630;52.036;8.514;2023-02-01T15:37:31;5.30;99.90
5222;DHT22;2630;52.036;8.514;2023-02-01T15:40:26;5.30;99.90
5222;DHT22;2630;52.036;8.514;2023-02-01T15:42:54;5.20;99.90
5222;DHT22;2630;52.036;8.514;2023-02-01T15:45:26;5.20;99.90
5222;DHT22;2630;52.036;8.514;2023-02-01T15:50:20;5.20;99.90
5222;DHT22;2630;52.036;8.514;2023-02-01T15:52:47;5.10;99.90
5222;DHT22;2630;52.036;8.514;2023-02-01T16:00:27;5.10;99.90
5222;DHT22;2630;52.036;8.514;2023-02-01T16:02:55;5.10;99.90
5222;DHT22;2630;52.036;8.514;2023-02-01T16:10:42;5.10;99.90
5222;DHT22;2630;52.036;8.514;2023-02-01T16:13:09;5.10;99.90
5222;DHT22;2630;52.036;8.514;2023-02-01T16:15:34;5.20;99.90
5222;DHT22;2630;52.036;8.514;2023-02-01T16:18:00;5.20;99.90
5222;DHT22;2630;52.036;8.514;2023-02-01T16:20:25;5.20;99.90
5222;DHT22;2630;52.036;8.514;2023-02-01T16:22:51;5.20;99.90
5222;DHT22;2630;52.036;8.514;2023-02-01T16:25:17;5.20;99.90
5222;DHT22;2630;52.036;8.514;2023-02-01T16:27:42;5.30;99.90
5222;DHT22;2630;52.036;8.514;2023-02-01T16:30:08;5.30;99.90
5222;DHT22;2630;52.036;8.514;2023-02-01T16:35:04;5.40;99.90
5222;DHT22;2630;52.036;8.514;2023-02-01T16:37:30;5.40;99.90
5222;DHT22;2630;52.036;8.514;2023-02-01T16:39:58;5.40;99.90
5222;DHT22;2630;52.036;8.514;2023-02-01T16:42:24;5.50;99.90
5222;DHT22;2630;52.036;8.514;2023-02-01T16:44:49;5.60;99.90
5222;DHT22;2630;52.036;8.514;2023-02-01T16:47:17;5.70;99.90
5222;DHT22;2630;52.036;8.514;2023-02-01T16:49:44;5.70;99.90
5222;DHT22;2630;52.036;8.514;2023-02-01T16:52:24;5.70;99.90
5222;DHT22;2630;52.036;8.514;2023-02-01T16:54:50;5.70;99.90
5222;DHT22;2630;52.036;8.514;2023-02-01T16:57:17;5.70;99.90
5222;DHT22;2630;52.036;8.514;2023-02-01T16:59:43;5.60;99.90
5222;DHT22;2630;52.036;8.514;2023-02-01T17:02:15;5.60;99.90
5222;DHT22;2630;52.036;8.514;2023-02-01T17:04:41;5.60;99.90
5222;DHT22;2630;52.036;8.514;2023-02-01T17:07:14;5.50;99.90
5222;DHT22;2630;52.036;8.514;2023-02-01T17:09:40;5.50;99.90
5222;DHT22;2630;52.036;8.514;2023-02-01T17:12:21;5.60;99.90
5222;DHT22;2630;52.036;8.514;2023-02-01T17:14:46;5.60;99.90
5222;DHT22;2630;52.036;8.514;2023-02-01T17:17:12;5.60;99.90
5222;DHT22;2630;52.036;8.514;2023-02-01T17:19:38;5.50;99.90
5222;DHT22;2630;52.036;8.514;2023-02-01T17:22:04;5.40;99.90
5222;DHT22;2630;52.036;8.514;2023-02-01T17:24:31;5.40;99.90
5222;DHT22;2630;52.036;8.514;2023-02-01T17:26:57;5.30;99.90
5222;DHT22;2630;52.036;8.514;2023-02-01T17:29:22;5.30;99.90
5222;DHT22;2630;52.036;8.514;2023-02-01T17:31:50;5.20;99.90
5222;DHT22;2630;52.036;8.514;2023-02-01T17:34:16;5.20;99.90
5222;DHT22;2630;52.036;8.514;2023-02-01T17:36:44;5.20;99.90
5222;DHT22;2630;52.036;8.514;2023-02-01T17:39:10;5.20;99.90
5222;DHT22;2630;52.036;8.514;2023-02-01T17:41:56;5.20;99.90
5222;DHT22;2630;52.036;8.514;2023-02-01T17:44:21;5.20;99.90
5222;DHT22;2630;52.036;8.514;2023-02-01T17:49:13;5.30;99.90
5222;DHT22;2630;52.036;8.514;2023-02-01T17:51:38;5.20;99.90
5222;DHT22;2630;52.036;8.514;2023-02-01T17:56:34;5.20;99.90
5222;DHT22;2630;52.036;8.514;2023-02-01T17:59:00;5.20;99.90
5222;DHT22;2630;52.036;8.514;2023-02-01T18:01:25;5.20;99.90
5222;DHT22;2630;52.036;8.514;2023-02-01T18:03:51;5.20;99.90
5222;DHT22;2630;52.036;8.514;2023-02-01T18:06:20;5.10;99.90
5222;DHT22;2630;52.036;8.514;2023-02-01T18:08:46;5.10;99.90
5222;DHT22;2630;52.036;8.514;2023-02-01T18:11:21;5.10;99.90
5222;DHT22;2630;52.036;8.514;2023-02-01T18:13:47;5.00;99.90
5222;DHT22;2630;52.036;8.514;2023-02-01T18:18:42;5.10;99.90
5222;DHT22;2630;52.036;8.514;2023-02-01T18:21:08;5.00;99.90
5222;DHT22;2630;52.036;8.514;2023-02-01T18:23:34;5.10;99.90
5222;DHT22;2630;52.036;8.514;2023-02-01T18:25:59;5.00;99.90
5222;DHT22;2630;52.036;8.514;2023-02-01T18:28:25;5.00;99.90
5222;DHT22;2630;52.036;8.514;2023-02-01T18:30:52;5.00;99.90
5222;DHT22;2630;52.036;8.514;2023-02-01T18:33:19;5.00;99.90
5222;DHT22;2630;52.036;8.514;2023-02-01T18:35:45;5.00;99.90
5222;DHT22;2630;52.036;8.514;2023-02-01T18:38:11;5.00;99.90
5222;DHT22;2630;52.036;8.514;2023-02-01T18:40:49;5.00;99.90
5222;DHT22;2630;52.036;8.514;2023-02-01T18:43:15;5.00;99.90
5222;DHT22;2630;52.036;8.514;2023-02-01T18:45:42;5.00;99.90
5222;DHT22;2630;52.036;8.514;2023-02-01T18:48:12;5.00;99.90
5222;DHT22;2630;52.036;8.514;2023-02-01T18:53:09;5.10;99.90
5222;DHT22;2630;52.036;8.514;2023-02-01T18:55:36;5.10;99.90
5222;DHT22;2630;52.036;8.514;2023-02-01T18:58:03;5.10;99.90
5222;DHT22;2630;52.036;8.514;2023-02-01T19:00:31;5.10;99.90
5222;DHT22;2630;52.036;8.514;2023-02-01T19:02:57;5.10;99.90
5222;DHT22;2630;52.036;8.514;2023-02-01T19:05:22;5.10;99.90
5222;DHT22;2630;52.036;8.514;2023-02-01T19:07:48;5.10;99.90
5222;DHT22;2630;52.036;8.514;2023-02-01T19:10:20;5.20;99.90
5222;DHT22;2630;52.036;8.514;2023-02-01T19:12:50;5.20;99.90
5222;DHT22;2630;52.036;8.514;2023-02-01T19:15:17;5.20;99.90
5222;DHT22;2630;52.036;8.514;2023-02-01T19:17:46;5.10;99.90
5222;DHT22;2630;52.036;8.514;2023-02-01T19:20:14;5.20;99.90
5222;DHT22;2630;52.036;8.514;2023-02-01T19:22:40;5.20;99.90
5222;DHT22;2630;52.036;8.514;2023-02-01T19:25:08;5.30;99.90
5222;DHT22;2630;52.036;8.514;2023-02-01T19:27:34;5.40;99.90
5222;DHT22;2630;52.036;8.514;2023-02-01T19:29:59;5.40;99.90
5222;DHT22;2630;52.036;8.514;2023-02-01T19:32:25;5.40;99.90
5222;DHT22;2630;52.036;8.514;2023-02-01T19:34:51;5.50;99.90
5222;DHT22;2630;52.036;8.514;2023-02-01T19:37:16;5.60;99.90
5222;DHT22;2630;52.036;8.514;2023-02-01T19:39:44;5.60;99.90
5222;DHT22;2630;52.036;8.514;2023-02-01T19:42:10;5.70;99.90
5222;DHT22;2630;52.036;8.514;2023-02-01T19:44:36;5.70;99.90
5222;DHT22;2630;52.036;8.514;2023-02-01T19:47:02;5.70;99.90
5222;DHT22;2630;52.036;8.514;2023-02-01T19:49:27;5.80;99.90
5222;DHT22;2630;52.036;8.514;2023-02-01T19:51:53;5.80;99.90
5222;DHT22;2630;52.036;8.514;2023-02-01T19:59:13;5.70;99.90
5222;DHT22;2630;52.036;8.514;2023-02-01T20:01:39;5.70;99.90
5222;DHT22;2630;52.036;8.514;2023-02-01T20:08:58;5.70;99.90
5222;DHT22;2630;52.036;8.514;2023-02-01T20:13:55;5.70;99.90
5222;DHT22;2630;52.036;8.514;2023-02-01T20:16:22;5.70;99.90
5222;DHT22;2630;52.036;8.514;2023-02-01T20:26:09;5.70;99.90
5222;DHT22;2630;52.036;8.514;2023-02-01T20:28:36;5.60;99.90
5222;DHT22;2630;52.036;8.514;2023-02-01T20:31:04;5.70;99.90
5222;DHT22;2630;52.036;8.514;2023-02-01T20:33:30;5.60;99.90
5222;DHT22;2630;52.036;8.514;2023-02-01T20:35:56;5.60;99.90
5222;DHT22;2630;52.036;8.514;2023-02-01T20:38:22;5.60;99.90
5222;DHT22;2630;52.036;8.514;2023-02-01T20:48:06;5.60;99.90
5222;DHT22;2630;52.036;8.514;2023-02-01T20:52:58;5.60;99.90
5222;DHT22;2630;52.036;8.514;2023-02-01T20:57:51;5.50;99.90
5222;DHT22;2630;52.036;8.514;2023-02-01T21:00:18;5.40;99.90
5222;DHT22;2630;52.036;8.514;2023-02-01T21:02:44;5.40;99.90
5222;DHT22;2630;52.036;8.514;2023-02-01T21:05:10;5.40;99.90
5222;DHT22;2630;52.036;8.514;2023-02-01T21:07:36;5.30;99.90
5222;DHT22;2630;52.036;8.514;2023-02-01T21:10:03;5.20;99.90
5222;DHT22;2630;52.036;8.514;2023-02-01T21:12:29;5.10;99.90
5222;DHT22;2630;52.036;8.514;2023-02-01T21:14:55;5.00;99.90
5222;DHT22;2630;52.036;8.514;2023-02-01T21:17:20;5.00;99.90
5222;DHT22;2630;52.036;8.514;2023-02-01T21:19:46;4.90;99.90
5222;DHT22;2630;52.036;8.514;2023-02-01T21:22:13;4.90;99.90
5222;DHT22;2630;52.036;8.514;2023-02-01T21:24:40;4.90;99.90
5222;DHT22;2630;52.036;8.514;2023-02-01T21:27:07;4.80;99.90
5222;DHT22;2630;52.036;8.514;2023-02-01T21:34:25;4.80;99.90
5222;DHT22;2630;52.036;8.514;2023-02-01T21:39:17;4.90;99.90
5222;DHT22;2630;52.036;8.514;2023-02-01T21:41:43;5.00;99.90
5222;DHT22;2630;52.036;8.514;2023-02-01T21:46:54;5.10;99.90
5222;DHT22;2630;52.036;8.514;2023-02-01T21:49:21;5.10;99.90
5222;DHT22;2630;52.036;8.514;2023-02-01T21:51:48;5.10;99.90
5222;DHT22;2630;52.036;8.514;2023-02-01T21:56:41;5.10;99.90
5222;DHT22;2630;52.036;8.514;2023-02-01T21:59:07;5.10;99.90
5222;DHT22;2630;52.036;8.514;2023-02-01T22:01:35;5.10;99.90
5222;DHT22;2630;52.036;8.514;2023-02-01T22:04:00;5.20;99.90
5222;DHT22;2630;52.036;8.514;2023-02-01T22:06:31;5.10;99.90
5222;DHT22;2630;52.036;8.514;2023-02-01T22:08:57;5.10;99.90
5222;DHT22;2630;52.036;8.514;2023-02-01T22:11:23;5.10;99.90
5222;DHT22;2630;52.036;8.514;2023-02-01T22:13:48;5.10;99.90
5222;DHT22;2630;52.036;8.514;2023-02-01T22:16:14;5.00;99.90
5222;DHT22;2630;52.036;8.514;2023-02-01T22:21:09;5.00;99.90
5222;DHT22;2630;52.036;8.514;2023-02-01T22:23:35;5.00;99.90
5222;DHT22;2630;52.036;8.514;2023-02-01T22:26:01;5.00;99.90
5222;DHT22;2630;52.036;8.514;2023-02-01T22:28:27;5.00;99.90
5222;DHT22;2630;52.036;8.514;2023-02-01T22:30:53;5.00;99.90
5222;DHT22;2630;52.036;8.514;2023-02-01T22:33:19;5.00;99.90
5222;DHT22;2630;52.036;8.514;2023-02-01T22:35:48;4.90;99.90
5222;DHT22;2630;52.036;8.514;2023-02-01T22:38:15;4.90;99.90
5222;DHT22;2630;52.036;8.514;2023-02-01T22:40:40;4.90;99.90
5222;DHT22;2630;52.036;8.514;2023-02-01T22:43:06;4.80;99.90
5222;DHT22;2630;52.036;8.514;2023-02-01T22:45:32;4.80;99.90
5222;DHT22;2630;52.036;8.514;2023-02-01T22:47:57;4.80;99.90
5222;DHT22;2630;52.036;8.514;2023-02-01T22:50:23;4.70;99.90
5222;DHT22;2630;52.036;8.514;2023-02-01T22:55:14;4.70;99.90
5222;DHT22;2630;52.036;8.514;2023-02-01T22:57:40;4.70;99.90